sensor_id;sensor_type;location;lat;lon;timestamp;P1;durP1;ratioP1;P2;durP2;ratioP2
74941;SDS011;63506;49.346;8.798;2024-03-25T00:00:17;5.10;;;1.65;;
74941;SDS011;63506;49.346;8.798;2024-03-25T00:02:59;2.50;;;1.35;;
74941;SDS011;63506;49.346;8.798;2024-03-25T00:05:41;2.28;;;1.70;;
74941;SDS011;63506;49.346;8.798;2024-03-25T00:08:25;3.33;;;1.65;;
74941;SDS011;63506;49.346;8.798;2024-03-25T00:11:07;3.80;;;1.23;;
74941;SDS011;63506;49.346;8.798;2024-03-25T00:13:49;5.97;;;1.80;;
74941;SDS011;63506;49.346;8.798;2024-03-25T00:16:31;4.63;;;1.40;;
74941;SDS011;63506;49.346;8.798;2024-03-25T00:19:13;4.18;;;1.60;;
74941;SDS011;63506;49.346;8.798;2024-03-25T00:21:54;5.22;;;1.85;;
74941;SDS011;63506;49.346;8.798;2024-03-25T00:24:39;3.47;;;1.40;;
74941;SDS011;63506;49.346;8.798;2024-03-25T00:27:20;5.15;;;1.65;;
74941;SDS011;63506;49.346;8.798;2024-03-25T00:30:02;3.03;;;1.70;;
74941;SDS011;63506;49.346;8.798;2024-03-25T00:32:47;2.75;;;1.60;;
74941;SDS011;63506;49.346;8.798;2024-03-25T00:35:29;3.00;;;1.58;;
74941;SDS011;63506;49.346;8.798;2024-03-25T00:38:10;3.13;;;1.50;;
74941;SDS011;63506;49.346;8.798;2024-03-25T00:40:55;5.90;;;2.00;;
74941;SDS011;63506;49.346;8.798;2024-03-25T00:43:37;2.92;;;1.58;;
74941;SDS011;63506;49.346;8.798;2024-03-25T00:46:18;2.42;;;1.33;;
74941;SDS011;63506;49.346;8.798;2024-03-25T00:49:00;3.80;;;1.85;;
74941;SDS011;63506;49.346;8.798;2024-03-25T01:01:02;2.30;;;1.02;;
74941;SDS011;63506;49.346;8.798;2024-03-25T01:03:46;4.35;;;1.60;;
74941;SDS011;63506;49.346;8.798;2024-03-25T01:06:33;4.22;;;1.95;;
74941;SDS011;63506;49.346;8.798;2024-03-25T01:09:15;3.63;;;1.35;;
74941;SDS011;63506;49.346;8.798;2024-03-25T01:12:01;6.60;;;2.00;;
74941;SDS011;63506;49.346;8.798;2024-03-25T01:14:48;4.93;;;1.50;;
74941;SDS011;63506;49.346;8.798;2024-03-25T01:17:35;3.58;;;1.08;;
74941;SDS011;63506;49.346;8.798;2024-03-25T01:20:16;3.45;;;1.52;;
74941;SDS011;63506;49.346;8.798;2024-03-25T01:22:58;3.83;;;1.40;;
74941;SDS011;63506;49.346;8.798;2024-03-25T01:25:40;5.75;;;1.75;;
74941;SDS011;63506;49.346;8.798;2024-03-25T01:28:26;3.45;;;1.33;;
74941;SDS011;63506;49.346;8.798;2024-03-25T01:31:11;8.25;;;1.83;;
74941;SDS011;63506;49.346;8.798;2024-03-25T01:33:52;3.53;;;1.60;;
74941;SDS011;63506;49.346;8.798;2024-03-25T01:36:34;5.60;;;1.90;;
74941;SDS011;63506;49.346;8.798;2024-03-25T01:39:18;4.75;;;1.90;;
74941;SDS011;63506;49.346;8.798;2024-03-25T01:41:59;4.80;;;2.00;;
74941;SDS011;63506;49.346;8.798;2024-03-25T01:44:41;3.95;;;1.50;;
74941;SDS011;63506;49.346;8.798;2024-03-25T01:47:28;6.82;;;2.08;;
74941;SDS011;63506;49.346;8.798;2024-03-25T01:50:12;2.72;;;1.50;;
74941;SDS011;63506;49.346;8.798;2024-03-25T01:52:54;7.43;;;2.42;;
74941;SDS011;63506;49.346;8.798;2024-03-25T01:55:36;3.50;;;1.77;;
74941;SDS011;63506;49.346;8.798;2024-03-25T01:58:23;3.88;;;1.70;;
74941;SDS011;63506;49.346;8.798;2024-03-25T02:01:10;4.47;;;1.60;;
74941;SDS011;63506;49.346;8.798;2024-03-25T02:04:01;5.03;;;1.85;;
74941;SDS011;63506;49.346;8.798;2024-03-25T02:06:47;4.57;;;1.80;;
74941;SDS011;63506;49.346;8.798;2024-03-25T02:09:33;4.57;;;2.00;;
74941;SDS011;63506;49.346;8.798;2024-03-25T02:12:19;4.03;;;1.67;;
74941;SDS011;63506;49.346;8.798;2024-03-25T02:15:04;4.65;;;2.05;;
74941;SDS011;63506;49.346;8.798;2024-03-25T02:17:49;4.80;;;1.95;;
74941;SDS011;63506;49.346;8.798;2024-03-25T02:20:36;4.32;;;2.00;;
74941;SDS011;63506;49.346;8.798;2024-03-25T02:23:20;4.43;;;1.83;;
74941;SDS011;63506;49.346;8.798;2024-03-25T02:26:05;2.42;;;1.45;;
74941;SDS011;63506;49.346;8.798;2024-03-25T02:28:46;5.03;;;2.22;;
74941;SDS011;63506;49.346;8.798;2024-03-25T02:34:14;3.25;;;1.40;;
74941;SDS011;63506;49.346;8.798;2024-03-25T02:36:56;5.95;;;2.08;;
74941;SDS011;63506;49.346;8.798;2024-03-25T02:39:38;4.75;;;1.75;;
74941;SDS011;63506;49.346;8.798;2024-03-25T02:42:27;4.60;;;1.63;;
74941;SDS011;63506;49.346;8.798;2024-03-25T02:45:12;4.68;;;2.08;;
74941;SDS011;63506;49.346;8.798;2024-03-25T02:47:56;2.33;;;1.60;;
74941;SDS011;63506;49.346;8.798;2024-03-25T02:50:38;4.93;;;2.40;;
74941;SDS011;63506;49.346;8.798;2024-03-25T02:53:22;3.53;;;1.80;;
74941;SDS011;63506;49.346;8.798;2024-03-25T02:56:06;4.40;;;2.30;;
74941;SDS011;63506;49.346;8.798;2024-03-25T02:58:52;5.43;;;2.10;;
74941;SDS011;63506;49.346;8.798;2024-03-25T03:01:36;5.78;;;2.20;;
74941;SDS011;63506;49.346;8.798;2024-03-25T03:04:22;4.68;;;1.63;;
74941;SDS011;63506;49.346;8.798;2024-03-25T03:07:06;4.60;;;2.28;;
74941;SDS011;63506;49.346;8.798;2024-03-25T03:09:48;5.63;;;2.15;;
74941;SDS011;63506;49.346;8.798;2024-03-25T03:12:34;4.03;;;1.85;;
74941;SDS011;63506;49.346;8.798;2024-03-25T03:15:21;5.45;;;2.22;;
74941;SDS011;63506;49.346;8.798;2024-03-25T03:18:07;6.70;;;2.15;;
74941;SDS011;63506;49.346;8.798;2024-03-25T03:20:49;4.30;;;1.60;;
74941;SDS011;63506;49.346;8.798;2024-03-25T03:23:30;6.93;;;2.20;;
74941;SDS011;63506;49.346;8.798;2024-03-25T03:26:15;6.97;;;2.10;;
74941;SDS011;63506;49.346;8.798;2024-03-25T03:29:01;3.72;;;2.08;;
74941;SDS011;63506;49.346;8.798;2024-03-25T03:31:46;3.35;;;1.63;;
74941;SDS011;63506;49.346;8.798;2024-03-25T03:34:30;6.13;;;1.80;;
74941;SDS011;63506;49.346;8.798;2024-03-25T03:37:11;4.00;;;1.40;;
74941;SDS011;63506;49.346;8.798;2024-03-25T03:39:55;4.32;;;2.00;;
74941;SDS011;63506;49.346;8.798;2024-03-25T03:42:39;5.68;;;1.83;;
74941;SDS011;63506;49.346;8.798;2024-03-25T03:45:21;3.38;;;1.85;;
74941;SDS011;63506;49.346;8.798;2024-03-25T03:48:08;3.72;;;1.38;;
74941;SDS011;63506;49.346;8.798;2024-03-25T03:50:51;3.25;;;1.90;;
74941;SDS011;63506;49.346;8.798;2024-03-25T03:53:34;3.92;;;1.83;;
74941;SDS011;63506;49.346;8.798;2024-03-25T03:56:18;3.67;;;1.80;;
74941;SDS011;63506;49.346;8.798;2024-03-25T03:59:05;3.20;;;1.80;;
74941;SDS011;63506;49.346;8.798;2024-03-25T04:01:49;7.35;;;2.67;;
74941;SDS011;63506;49.346;8.798;2024-03-25T04:04:33;5.60;;;2.00;;
74941;SDS011;63506;49.346;8.798;2024-03-25T04:07:15;2.65;;;1.60;;
74941;SDS011;63506;49.346;8.798;2024-03-25T04:09:59;3.92;;;1.60;;
74941;SDS011;63506;49.346;8.798;2024-03-25T04:12:43;2.35;;;1.35;;
74941;SDS011;63506;49.346;8.798;2024-03-25T04:15:25;2.58;;;1.73;;
74941;SDS011;63506;49.346;8.798;2024-03-25T04:18:12;3.88;;;1.40;;
74941;SDS011;63506;49.346;8.798;2024-03-25T04:20:56;4.60;;;2.03;;
74941;SDS011;63506;49.346;8.798;2024-03-25T04:23:38;6.88;;;1.63;;
74941;SDS011;63506;49.346;8.798;2024-03-25T04:26:20;8.65;;;2.20;;
74941;SDS011;63506;49.346;8.798;2024-03-25T04:29:02;4.88;;;1.70;;
74941;SDS011;63506;49.346;8.798;2024-03-25T04:31:44;4.20;;;1.65;;
74941;SDS011;63506;49.346;8.798;2024-03-25T04:34:28;3.85;;;1.90;;
74941;SDS011;63506;49.346;8.798;2024-03-25T04:37:15;4.13;;;1.63;;
74941;SDS011;63506;49.346;8.798;2024-03-25T04:39:57;5.57;;;2.17;;
74941;SDS011;63506;49.346;8.798;2024-03-25T04:42:39;4.07;;;1.95;;
74941;SDS011;63506;49.346;8.798;2024-03-25T04:45:23;4.45;;;1.73;;
74941;SDS011;63506;49.346;8.798;2024-03-25T04:48:07;5.05;;;2.38;;
74941;SDS011;63506;49.346;8.798;2024-03-25T04:50:54;3.42;;;1.55;;
74941;SDS011;63506;49.346;8.798;2024-03-25T04:53:41;4.05;;;1.70;;
74941;SDS011;63506;49.346;8.798;2024-03-25T04:59:06;3.80;;;1.70;;
74941;SDS011;63506;49.346;8.798;2024-03-25T05:01:51;3.38;;;1.50;;
74941;SDS011;63506;49.346;8.798;2024-03-25T05:04:35;5.63;;;2.08;;
74941;SDS011;63506;49.346;8.798;2024-03-25T05:07:22;7.65;;;2.25;;
74941;SDS011;63506;49.346;8.798;2024-03-25T05:10:07;6.80;;;1.65;;
74941;SDS011;63506;49.346;8.798;2024-03-25T05:12:52;4.03;;;2.10;;
74941;SDS011;63506;49.346;8.798;2024-03-25T05:15:34;7.25;;;2.05;;
74941;SDS011;63506;49.346;8.798;2024-03-25T05:18:16;4.07;;;1.75;;
74941;SDS011;63506;49.346;8.798;2024-03-25T05:20:58;4.38;;;1.90;;
74941;SDS011;63506;49.346;8.798;2024-03-25T05:23:39;6.93;;;2.38;;
74941;SDS011;63506;49.346;8.798;2024-03-25T05:26:27;3.83;;;1.63;;
74941;SDS011;63506;49.346;8.798;2024-03-25T05:29:11;4.78;;;2.28;;
74941;SDS011;63506;49.346;8.798;2024-03-25T05:31:57;5.05;;;2.08;;
74941;SDS011;63506;49.346;8.798;2024-03-25T05:34:42;6.45;;;2.00;;
74941;SDS011;63506;49.346;8.798;2024-03-25T05:37:28;5.93;;;2.67;;
74941;SDS011;63506;49.346;8.798;2024-03-25T05:40:10;5.50;;;2.17;;
74941;SDS011;63506;49.346;8.798;2024-03-25T05:42:55;7.32;;;1.92;;
74941;SDS011;63506;49.346;8.798;2024-03-25T05:45:37;3.92;;;1.95;;
74941;SDS011;63506;49.346;8.798;2024-03-25T05:48:19;7.53;;;2.00;;
74941;SDS011;63506;49.346;8.798;2024-03-25T05:51:03;4.50;;;2.20;;
74941;SDS011;63506;49.346;8.798;2024-03-25T05:53:48;3.38;;;1.70;;
74941;SDS011;63506;49.346;8.798;2024-03-25T05:56:35;6.32;;;2.45;;
74941;SDS011;63506;49.346;8.798;2024-03-25T05:59:19;3.15;;;1.80;;
74941;SDS011;63506;49.346;8.798;2024-03-25T06:02:01;4.13;;;2.28;;
74941;SDS011;63506;49.346;8.798;2024-03-25T06:04:42;5.95;;;2.17;;
74941;SDS011;63506;49.346;8.798;2024-03-25T06:07:29;4.90;;;2.38;;
74941;SDS011;63506;49.346;8.798;2024-03-25T06:10:13;6.22;;;2.38;;
74941;SDS011;63506;49.346;8.798;2024-03-25T06:12:55;4.60;;;1.73;;
74941;SDS011;63506;49.346;8.798;2024-03-25T06:15:39;5.78;;;2.08;;
74941;SDS011;63506;49.346;8.798;2024-03-25T06:18:23;2.83;;;1.65;;
74941;SDS011;63506;49.346;8.798;2024-03-25T06:21:04;3.90;;;1.30;;
74941;SDS011;63506;49.346;8.798;2024-03-25T06:23:48;4.47;;;1.63;;
74941;SDS011;63506;49.346;8.798;2024-03-25T06:26:32;4.30;;;1.80;;
74941;SDS011;63506;49.346;8.798;2024-03-25T06:29:17;3.70;;;1.65;;
74941;SDS011;63506;49.346;8.798;2024-03-25T06:32:01;4.68;;;2.33;;
74941;SDS011;63506;49.346;8.798;2024-03-25T06:34:58;5.47;;;1.95;;
74941;SDS011;63506;49.346;8.798;2024-03-25T06:37:40;4.28;;;1.70;;
74941;SDS011;63506;49.346;8.798;2024-03-25T06:40:26;4.40;;;2.22;;
74941;SDS011;63506;49.346;8.798;2024-03-25T06:45:51;4.85;;;2.00;;
74941;SDS011;63506;49.346;8.798;2024-03-25T06:48:36;6.72;;;3.60;;
74941;SDS011;63506;49.346;8.798;2024-03-25T06:51:20;4.05;;;1.92;;
74941;SDS011;63506;49.346;8.798;2024-03-25T06:54:04;4.90;;;2.35;;
74941;SDS011;63506;49.346;8.798;2024-03-25T06:56:50;3.85;;;1.90;;
74941;SDS011;63506;49.346;8.798;2024-03-25T06:59:32;5.80;;;2.42;;
74941;SDS011;63506;49.346;8.798;2024-03-25T07:02:16;5.63;;;2.50;;
74941;SDS011;63506;49.346;8.798;2024-03-25T07:05:03;4.32;;;2.33;;
74941;SDS011;63506;49.346;8.798;2024-03-25T07:07:47;4.97;;;2.10;;
74941;SDS011;63506;49.346;8.798;2024-03-25T07:10:29;4.72;;;2.00;;
74941;SDS011;63506;49.346;8.798;2024-03-25T07:13:14;4.78;;;2.40;;
74941;SDS011;63506;49.346;8.798;2024-03-25T07:15:57;2.90;;;2.00;;
74941;SDS011;63506;49.346;8.798;2024-03-25T07:18:41;7.97;;;2.38;;
74941;SDS011;63506;49.346;8.798;2024-03-25T07:21:26;4.68;;;2.45;;
74941;SDS011;63506;49.346;8.798;2024-03-25T07:24:10;5.55;;;1.98;;
74941;SDS011;63506;49.346;8.798;2024-03-25T07:26:54;5.45;;;2.30;;
74941;SDS011;63506;49.346;8.798;2024-03-25T07:29:36;5.53;;;2.30;;
74941;SDS011;63506;49.346;8.798;2024-03-25T07:32:20;4.43;;;2.55;;
74941;SDS011;63506;49.346;8.798;2024-03-25T07:35:01;5.07;;;2.30;;
74941;SDS011;63506;49.346;8.798;2024-03-25T07:37:48;3.05;;;2.10;;
74941;SDS011;63506;49.346;8.798;2024-03-25T07:40:30;3.35;;;2.10;;
74941;SDS011;63506;49.346;8.798;2024-03-25T07:43:14;3.20;;;1.85;;
74941;SDS011;63506;49.346;8.798;2024-03-25T07:45:55;4.00;;;2.45;;
74941;SDS011;63506;49.346;8.798;2024-03-25T07:48:37;5.22;;;2.22;;
74941;SDS011;63506;49.346;8.798;2024-03-25T07:51:19;6.82;;;2.15;;
74941;SDS011;63506;49.346;8.798;2024-03-25T07:54:04;7.15;;;2.50;;
74941;SDS011;63506;49.346;8.798;2024-03-25T07:56:50;4.85;;;2.40;;
74941;SDS011;63506;49.346;8.798;2024-03-25T07:59:35;5.90;;;2.40;;
74941;SDS011;63506;49.346;8.798;2024-03-25T08:02:19;4.15;;;2.33;;
74941;SDS011;63506;49.346;8.798;2024-03-25T08:05:03;5.38;;;2.45;;
74941;SDS011;63506;49.346;8.798;2024-03-25T08:07:46;4.20;;;1.85;;
74941;SDS011;63506;49.346;8.798;2024-03-25T08:10:30;8.25;;;2.55;;
74941;SDS011;63506;49.346;8.798;2024-03-25T08:13:14;4.30;;;2.20;;
74941;SDS011;63506;49.346;8.798;2024-03-25T08:15:58;4.72;;;2.15;;
74941;SDS011;63506;49.346;8.798;2024-03-25T08:18:40;5.60;;;2.28;;
74941;SDS011;63506;49.346;8.798;2024-03-25T08:21:25;2.95;;;2.03;;
74941;SDS011;63506;49.346;8.798;2024-03-25T08:24:09;4.50;;;2.80;;
74941;SDS011;63506;49.346;8.798;2024-03-25T08:26:55;6.43;;;2.08;;
74941;SDS011;63506;49.346;8.798;2024-03-25T08:29:37;3.15;;;1.70;;
74941;SDS011;63506;49.346;8.798;2024-03-25T08:32:19;6.25;;;2.10;;
74941;SDS011;63506;49.346;8.798;2024-03-25T08:35:01;5.43;;;2.45;;
74941;SDS011;63506;49.346;8.798;2024-03-25T08:37:46;5.00;;;1.77;;
74941;SDS011;63506;49.346;8.798;2024-03-25T08:40:27;2.38;;;1.30;;
74941;SDS011;63506;49.346;8.798;2024-03-25T08:43:12;4.15;;;1.80;;
74941;SDS011;63506;49.346;8.798;2024-03-25T08:45:53;5.20;;;1.85;;
74941;SDS011;63506;49.346;8.798;2024-03-25T08:48:40;5.05;;;1.70;;
74941;SDS011;63506;49.346;8.798;2024-03-25T08:51:21;2.38;;;1.20;;
74941;SDS011;63506;49.346;8.798;2024-03-25T08:54:03;6.75;;;1.27;;
74941;SDS011;63506;49.346;8.798;2024-03-25T08:56:50;3.90;;;1.13;;
74941;SDS011;63506;49.346;8.798;2024-03-25T08:59:39;3.58;;;1.70;;
74941;SDS011;63506;49.346;8.798;2024-03-25T09:02:23;2.22;;;1.00;;
74941;SDS011;63506;49.346;8.798;2024-03-25T09:05:05;2.85;;;0.98;;
74941;SDS011;63506;49.346;8.798;2024-03-25T09:07:49;3.58;;;1.10;;
74941;SDS011;63506;49.346;8.798;2024-03-25T09:10:36;3.08;;;1.40;;
74941;SDS011;63506;49.346;8.798;2024-03-25T09:13:36;4.10;;;1.35;;
74941;SDS011;63506;49.346;8.798;2024-03-25T09:16:23;2.90;;;1.30;;
74941;SDS011;63506;49.346;8.798;2024-03-25T09:19:04;3.05;;;1.15;;
74941;SDS011;63506;49.346;8.798;2024-03-25T09:21:48;6.60;;;1.50;;
74941;SDS011;63506;49.346;8.798;2024-03-25T09:24:30;4.03;;;1.75;;
74941;SDS011;63506;49.346;8.798;2024-03-25T09:27:14;3.17;;;1.35;;
74941;SDS011;63506;49.346;8.798;2024-03-25T09:29:56;2.80;;;1.13;;
74941;SDS011;63506;49.346;8.798;2024-03-25T09:32:45;3.15;;;1.00;;
74941;SDS011;63506;49.346;8.798;2024-03-25T09:35:27;3.25;;;1.40;;
74941;SDS011;63506;49.346;8.798;2024-03-25T09:38:12;3.97;;;1.17;;
74941;SDS011;63506;49.346;8.798;2024-03-25T09:40:57;5.63;;;1.40;;
74941;SDS011;63506;49.346;8.798;2024-03-25T09:43:42;3.22;;;1.65;;
74941;SDS011;63506;49.346;8.798;2024-03-25T09:46:29;2.47;;;0.93;;
74941;SDS011;63506;49.346;8.798;2024-03-25T09:49:18;1.23;;;0.98;;
74941;SDS011;63506;49.346;8.798;2024-03-25T09:52:01;3.47;;;1.25;;
74941;SDS011;63506;49.346;8.798;2024-03-25T09:54:43;3.60;;;1.20;;
74941;SDS011;63506;49.346;8.798;2024-03-25T09:57:27;4.30;;;1.35;;
74941;SDS011;63506;49.346;8.798;2024-03-25T10:00:12;2.20;;;1.00;;
74941;SDS011;63506;49.346;8.798;2024-03-25T10:02:59;3.65;;;1.20;;
74941;SDS011;63506;49.346;8.798;2024-03-25T10:05:44;3.63;;;1.30;;
74941;SDS011;63506;49.346;8.798;2024-03-25T10:08:33;3.00;;;1.33;;
74941;SDS011;63506;49.346;8.798;2024-03-25T10:11:17;4.28;;;1.75;;
74941;SDS011;63506;49.346;8.798;2024-03-25T10:14:00;3.92;;;1.45;;
74941;SDS011;63506;49.346;8.798;2024-03-25T10:16:44;3.85;;;1.35;;
74941;SDS011;63506;49.346;8.798;2024-03-25T10:19:26;5.53;;;1.38;;
74941;SDS011;63506;49.346;8.798;2024-03-25T10:22:13;1.67;;;1.00;;
74941;SDS011;63506;49.346;8.798;2024-03-25T10:24:58;4.15;;;1.25;;
74941;SDS011;63506;49.346;8.798;2024-03-25T10:27:52;2.63;;;1.40;;
74941;SDS011;63506;49.346;8.798;2024-03-25T10:30:35;3.63;;;1.50;;
74941;SDS011;63506;49.346;8.798;2024-03-25T10:33:17;4.22;;;1.70;;
74941;SDS011;63506;49.346;8.798;2024-03-25T10:36:02;2.33;;;1.10;;
74941;SDS011;63506;49.346;8.798;2024-03-25T10:38:59;3.05;;;1.23;;
74941;SDS011;63506;49.346;8.798;2024-03-25T10:41:45;2.38;;;1.38;;
74941;SDS011;63506;49.346;8.798;2024-03-25T10:44:28;2.03;;;1.30;;
74941;SDS011;63506;49.346;8.798;2024-03-25T10:47:14;3.63;;;1.33;;
74941;SDS011;63506;49.346;8.798;2024-03-25T10:50:02;4.10;;;1.35;;
74941;SDS011;63506;49.346;8.798;2024-03-25T10:52:51;4.07;;;1.45;;
74941;SDS011;63506;49.346;8.798;2024-03-25T10:58:18;3.60;;;1.63;;
74941;SDS011;63506;49.346;8.798;2024-03-25T11:01:07;2.17;;;1.10;;
74941;SDS011;63506;49.346;8.798;2024-03-25T11:03:58;2.63;;;1.30;;
74941;SDS011;63506;49.346;8.798;2024-03-25T11:06:48;3.95;;;1.13;;
74941;SDS011;63506;49.346;8.798;2024-03-25T11:09:30;2.83;;;1.27;;
74941;SDS011;63506;49.346;8.798;2024-03-25T11:12:14;2.92;;;1.35;;
74941;SDS011;63506;49.346;8.798;2024-03-25T11:15:00;3.10;;;1.40;;
74941;SDS011;63506;49.346;8.798;2024-03-25T11:17:50;3.10;;;1.23;;
74941;SDS011;63506;49.346;8.798;2024-03-25T11:20:34;4.25;;;1.30;;
74941;SDS011;63506;49.346;8.798;2024-03-25T11:23:18;1.80;;;1.25;;
74941;SDS011;63506;49.346;8.798;2024-03-25T11:26:02;2.92;;;1.27;;
74941;SDS011;63506;49.346;8.798;2024-03-25T11:28:49;1.90;;;1.30;;
74941;SDS011;63506;49.346;8.798;2024-03-25T11:31:31;3.58;;;1.60;;
74941;SDS011;63506;49.346;8.798;2024-03-25T11:34:16;2.60;;;1.20;;
74941;SDS011;63506;49.346;8.798;2024-03-25T11:36:58;3.03;;;0.90;;
74941;SDS011;63506;49.346;8.798;2024-03-25T11:39:42;2.65;;;0.93;;
74941;SDS011;63506;49.346;8.798;2024-03-25T11:45:39;2.63;;;1.27;;
74941;SDS011;63506;49.346;8.798;2024-03-25T11:48:21;3.22;;;1.00;;
74941;SDS011;63506;49.346;8.798;2024-03-25T11:51:03;4.65;;;1.13;;
74941;SDS011;63506;49.346;8.798;2024-03-25T11:53:45;1.75;;;0.80;;
74941;SDS011;63506;49.346;8.798;2024-03-25T11:56:29;3.00;;;1.20;;
74941;SDS011;63506;49.346;8.798;2024-03-25T11:59:11;6.25;;;1.10;;
74941;SDS011;63506;49.346;8.798;2024-03-25T12:02:08;1.95;;;1.00;;
74941;SDS011;63506;49.346;8.798;2024-03-25T12:04:50;5.03;;;1.00;;
74941;SDS011;63506;49.346;8.798;2024-03-25T12:07:34;2.47;;;1.15;;
74941;SDS011;63506;49.346;8.798;2024-03-25T12:10:18;2.25;;;1.02;;
74941;SDS011;63506;49.346;8.798;2024-03-25T12:13:18;2.83;;;1.10;;
74941;SDS011;63506;49.346;8.798;2024-03-25T12:16:04;2.65;;;1.23;;
74941;SDS011;63506;49.346;8.798;2024-03-25T12:18:49;4.13;;;0.95;;
74941;SDS011;63506;49.346;8.798;2024-03-25T12:21:34;4.38;;;1.35;;
74941;SDS011;63506;49.346;8.798;2024-03-25T12:24:18;5.82;;;1.40;;
74941;SDS011;63506;49.346;8.798;2024-03-25T12:27:02;1.60;;;1.00;;
74941;SDS011;63506;49.346;8.798;2024-03-25T12:29:43;4.93;;;1.40;;
74941;SDS011;63506;49.346;8.798;2024-03-25T12:32:35;3.15;;;1.25;;
74941;SDS011;63506;49.346;8.798;2024-03-25T12:35:25;2.50;;;1.08;;
74941;SDS011;63506;49.346;8.798;2024-03-25T12:38:07;2.78;;;1.42;;
74941;SDS011;63506;49.346;8.798;2024-03-25T12:40:49;2.58;;;1.00;;
74941;SDS011;63506;49.346;8.798;2024-03-25T12:43:36;2.15;;;1.70;;
74941;SDS011;63506;49.346;8.798;2024-03-25T12:46:25;4.25;;;1.15;;
74941;SDS011;63506;49.346;8.798;2024-03-25T12:49:08;4.43;;;1.20;;
74941;SDS011;63506;49.346;8.798;2024-03-25T12:51:53;1.27;;;0.88;;
74941;SDS011;63506;49.346;8.798;2024-03-25T12:54:35;3.35;;;1.27;;
74941;SDS011;63506;49.346;8.798;2024-03-25T12:57:19;6.28;;;1.17;;
74941;SDS011;63506;49.346;8.798;2024-03-25T13:00:04;1.63;;;0.90;;
74941;SDS011;63506;49.346;8.798;2024-03-25T13:02:47;4.43;;;1.10;;
74941;SDS011;63506;49.346;8.798;2024-03-25T13:05:29;1.98;;;0.80;;
74941;SDS011;63506;49.346;8.798;2024-03-25T13:08:14;2.70;;;0.98;;
74941;SDS011;63506;49.346;8.798;2024-03-25T13:10:57;2.55;;;0.90;;
74941;SDS011;63506;49.346;8.798;2024-03-25T13:13:38;2.42;;;1.30;;
74941;SDS011;63506;49.346;8.798;2024-03-25T13:16:20;2.80;;;0.90;;
74941;SDS011;63506;49.346;8.798;2024-03-25T13:19:02;3.78;;;0.93;;
74941;SDS011;63506;49.346;8.798;2024-03-25T13:21:44;3.92;;;0.80;;
74941;SDS011;63506;49.346;8.798;2024-03-25T13:24:29;2.15;;;0.82;;
74941;SDS011;63506;49.346;8.798;2024-03-25T13:27:10;2.70;;;1.00;;
74941;SDS011;63506;49.346;8.798;2024-03-25T14:01:12;3.40;;;1.10;;
74941;SDS011;63506;49.346;8.798;2024-03-25T14:03:54;1.63;;;0.90;;
74941;SDS011;63506;49.346;8.798;2024-03-25T14:06:36;2.20;;;0.95;;
74941;SDS011;63506;49.346;8.798;2024-03-25T14:09:24;2.40;;;1.02;;
74941;SDS011;63506;49.346;8.798;2024-03-25T14:12:08;1.95;;;0.88;;
74941;SDS011;63506;49.346;8.798;2024-03-25T14:14:50;2.25;;;1.00;;
74941;SDS011;63506;49.346;8.798;2024-03-25T14:17:39;2.33;;;0.88;;
74941;SDS011;63506;49.346;8.798;2024-03-25T14:20:20;6.65;;;1.27;;
74941;SDS011;63506;49.346;8.798;2024-03-25T14:23:02;1.92;;;0.70;;
74941;SDS011;63506;49.346;8.798;2024-03-25T14:25:46;1.98;;;1.00;;
74941;SDS011;63506;49.346;8.798;2024-03-25T16:11:16;2.30;;;1.27;;
74941;SDS011;63506;49.346;8.798;2024-03-25T16:40:11;0.98;;;0.77;;
74941;SDS011;63506;49.346;8.798;2024-03-25T16:42:53;2.55;;;0.80;;
74941;SDS011;63506;49.346;8.798;2024-03-25T16:45:35;2.97;;;0.90;;
74941;SDS011;63506;49.346;8.798;2024-03-25T16:48:16;5.18;;;1.13;;
74941;SDS011;63506;49.346;8.798;2024-03-25T16:50:58;0.80;;;0.68;;
74941;SDS011;63506;49.346;8.798;2024-03-25T16:53:40;2.90;;;0.93;;
74941;SDS011;63506;49.346;8.798;2024-03-25T16:56:25;2.20;;;0.90;;
74941;SDS011;63506;49.346;8.798;2024-03-25T16:59:07;2.15;;;0.98;;
74941;SDS011;63506;49.346;8.798;2024-03-25T17:01:49;2.80;;;1.15;;
74941;SDS011;63506;49.346;8.798;2024-03-25T17:04:31;4.10;;;0.85;;
74941;SDS011;63506;49.346;8.798;2024-03-25T17:07:14;1.23;;;0.82;;
74941;SDS011;63506;49.346;8.798;2024-03-25T17:09:56;2.40;;;0.70;;
74941;SDS011;63506;49.346;8.798;2024-03-25T17:12:44;2.15;;;1.00;;
74941;SDS011;63506;49.346;8.798;2024-03-25T17:15:45;3.72;;;0.70;;
74941;SDS011;63506;49.346;8.798;2024-03-25T17:18:28;2.55;;;0.90;;
74941;SDS011;63506;49.346;8.798;2024-03-25T17:21:09;3.03;;;0.88;;
74941;SDS011;63506;49.346;8.798;2024-03-25T17:23:51;1.88;;;0.70;;
74941;SDS011;63506;49.346;8.798;2024-03-25T17:26:33;1.33;;;0.65;;
74941;SDS011;63506;49.346;8.798;2024-03-25T17:29:18;1.90;;;1.02;;
74941;SDS011;63506;49.346;8.798;2024-03-25T17:32:00;4.72;;;0.95;;
74941;SDS011;63506;49.346;8.798;2024-03-25T17:34:42;1.88;;;0.90;;
74941;SDS011;63506;49.346;8.798;2024-03-25T17:46:14;1.17;;;0.70;;
74941;SDS011;63506;49.346;8.798;2024-03-25T17:48:56;2.03;;;1.23;;
74941;SDS011;63506;49.346;8.798;2024-03-25T17:51:38;3.88;;;1.10;;
74941;SDS011;63506;49.346;8.798;2024-03-25T17:54:19;0.95;;;0.70;;
74941;SDS011;63506;49.346;8.798;2024-03-25T17:57:01;2.40;;;0.90;;
74941;SDS011;63506;49.346;8.798;2024-03-25T17:59:43;2.00;;;1.00;;
74941;SDS011;63506;49.346;8.798;2024-03-25T18:02:28;2.35;;;1.00;;
74941;SDS011;63506;49.346;8.798;2024-03-25T18:05:10;1.60;;;1.13;;
74941;SDS011;63506;49.346;8.798;2024-03-25T18:07:52;1.77;;;0.98;;
74941;SDS011;63506;49.346;8.798;2024-03-25T18:10:34;5.10;;;1.13;;
74941;SDS011;63506;49.346;8.798;2024-03-25T18:13:17;1.45;;;1.08;;
74941;SDS011;63506;49.346;8.798;2024-03-25T18:15:59;2.83;;;1.10;;
74941;SDS011;63506;49.346;8.798;2024-03-25T18:18:43;1.33;;;0.98;;
74941;SDS011;63506;49.346;8.798;2024-03-25T18:21:27;1.70;;;0.93;;
74941;SDS011;63506;49.346;8.798;2024-03-25T18:24:11;1.73;;;0.90;;
74941;SDS011;63506;49.346;8.798;2024-03-25T18:49:27;1.02;;;0.75;;
74941;SDS011;63506;49.346;8.798;2024-03-25T18:52:09;2.00;;;0.95;;
74941;SDS011;63506;49.346;8.798;2024-03-25T18:57:35;4.95;;;1.00;;
74941;SDS011;63506;49.346;8.798;2024-03-25T19:00:17;3.42;;;1.00;;
74941;SDS011;63506;49.346;8.798;2024-03-25T19:02:59;3.33;;;0.95;;
74941;SDS011;63506;49.346;8.798;2024-03-25T19:05:45;3.55;;;1.15;;
74941;SDS011;63506;49.346;8.798;2024-03-25T19:08:27;1.73;;;0.90;;
74941;SDS011;63506;49.346;8.798;2024-03-25T19:11:11;4.43;;;1.48;;
74941;SDS011;63506;49.346;8.798;2024-03-25T19:13:57;2.17;;;1.33;;
74941;SDS011;63506;49.346;8.798;2024-03-25T19:16:39;3.65;;;1.13;;
74941;SDS011;63506;49.346;8.798;2024-03-25T19:19:25;2.60;;;0.90;;
74941;SDS011;63506;49.346;8.798;2024-03-25T19:22:10;1.80;;;1.00;;
74941;SDS011;63506;49.346;8.798;2024-03-25T19:24:56;2.05;;;1.08;;
74941;SDS011;63506;49.346;8.798;2024-03-25T19:27:40;2.63;;;1.20;;
74941;SDS011;63506;49.346;8.798;2024-03-25T19:30:27;2.15;;;1.08;;
74941;SDS011;63506;49.346;8.798;2024-03-25T19:33:08;5.68;;;1.10;;
74941;SDS011;63506;49.346;8.798;2024-03-25T19:35:50;1.67;;;1.20;;
74941;SDS011;63506;49.346;8.798;2024-03-25T19:41:19;2.70;;;1.33;;
74941;SDS011;63506;49.346;8.798;2024-03-25T19:44:00;1.95;;;1.17;;
74941;SDS011;63506;49.346;8.798;2024-03-25T19:46:42;2.95;;;1.00;;
74941;SDS011;63506;49.346;8.798;2024-03-25T19:49:24;2.97;;;1.13;;
74941;SDS011;63506;49.346;8.798;2024-03-25T19:52:07;1.38;;;0.95;;
74941;SDS011;63506;49.346;8.798;2024-03-25T19:54:52;3.00;;;1.38;;
74941;SDS011;63506;49.346;8.798;2024-03-25T19:57:37;3.80;;;1.60;;
74941;SDS011;63506;49.346;8.798;2024-03-25T20:00:21;5.60;;;1.23;;
74941;SDS011;63506;49.346;8.798;2024-03-25T20:03:05;1.45;;;1.08;;
74941;SDS011;63506;49.346;8.798;2024-03-25T20:05:49;3.30;;;1.25;;
74941;SDS011;63506;49.346;8.798;2024-03-25T20:08:31;3.13;;;1.30;;